createdAt,value
2022-12-25T00:01:19.166Z,1.80
2022-12-25T00:03:46.731Z,1.96
2022-12-25T00:06:14.111Z,1.99
2022-12-25T00:08:41.251Z,1.99
2022-12-25T00:11:12.729Z,1.85
2022-12-25T00:13:39.904Z,1.84
2022-12-25T00:16:19.506Z,1.62
2022-12-25T00:18:47.695Z,1.79
2022-12-25T00:21:15.591Z,1.72
2022-12-25T00:23:43.302Z,1.83
2022-12-25T00:26:14.192Z,1.78
2022-12-25T00:28:41.290Z,1.79
2022-12-25T00:31:11.318Z,1.82
2022-12-25T00:33:40.193Z,1.80
2022-12-25T00:36:08.568Z,1.87
2022-12-25T00:38:37.248Z,1.69
2022-12-25T00:41:15.344Z,1.73
2022-12-25T00:43:43.247Z,1.69
2022-12-25T00:46:13.518Z,1.65
2022-12-25T00:48:41.506Z,1.68
2022-12-25T00:51:11.745Z,1.86
2022-12-25T00:53:39.048Z,1.78
2022-12-25T00:56:08.265Z,1.48
2022-12-25T00:58:36.292Z,1.70
2022-12-25T01:01:04.344Z,1.53
2022-12-25T01:03:31.809Z,1.15
2022-12-25T01:06:01.320Z,1.04
2022-12-25T01:08:30.836Z,0.93
2022-12-25T01:11:06.227Z,1.21
2022-12-25T01:13:35.425Z,0.82
2022-12-25T01:16:12.091Z,0.85
2022-12-25T01:18:39.202Z,0.62
2022-12-25T01:21:16.312Z,0.85
2022-12-25T01:23:44.721Z,0.70
2022-12-25T01:26:13.127Z,0.67
2022-12-25T01:28:40.932Z,0.56
2022-12-25T01:31:26.825Z,0.55
2022-12-25T01:33:53.993Z,0.49
2022-12-25T01:36:26.177Z,0.57
2022-12-25T01:38:55.014Z,0.75
2022-12-25T01:41:24.707Z,0.75
2022-12-25T01:44:06.046Z,0.86
2022-12-25T01:46:33.870Z,0.70
2022-12-25T01:49:12.025Z,0.71
2022-12-25T01:51:50.384Z,0.68
2022-12-25T01:54:25.907Z,0.52
2022-12-25T01:56:54.946Z,0.84
2022-12-25T01:59:24.835Z,0.68
2022-12-25T02:01:52.287Z,1.00
2022-12-25T02:04:38.948Z,1.11
2022-12-25T02:07:14.418Z,0.73
2022-12-25T02:09:42.155Z,0.79
2022-12-25T02:12:14.078Z,0.83
2022-12-25T02:14:41.302Z,0.66
2022-12-25T02:17:23.521Z,0.95
2022-12-25T02:19:59.671Z,0.92
2022-12-25T02:23:22.154Z,0.68
2022-12-25T02:26:07.352Z,0.29
2022-12-25T02:28:45.714Z,0.37
2022-12-25T02:31:22.101Z,0.15
2022-12-25T02:34:13.194Z,0.44
2022-12-25T02:36:46.243Z,0.45
2022-12-25T02:39:51.449Z,0.56
2022-12-25T02:43:05.416Z,0.73
2022-12-25T02:46:09.254Z,0.81
2022-12-25T02:49:01.719Z,0.45
2022-12-25T02:51:52.322Z,0.59
2022-12-25T02:54:45.090Z,0.86
2022-12-25T02:57:33.596Z,0.84
2022-12-25T03:00:21.383Z,0.30
2022-12-25T03:03:08.238Z,0.27
2022-12-25T03:05:58.644Z,0.06
2022-12-25T03:08:40.172Z,0.17
2022-12-25T03:11:28.841Z,0.49
2022-12-25T03:14:26.670Z,0.25
2022-12-25T03:16:56.723Z,0.35
2022-12-25T03:19:47.547Z,0.24
2022-12-25T03:22:40.385Z,0.47
2022-12-25T03:25:26.179Z,0.23
2022-12-25T03:27:56.292Z,0.18
2022-12-25T03:31:03.786Z,0.25
2022-12-25T03:34:23.784Z,0.18
2022-12-25T03:37:02.598Z,-0.03
2022-12-25T03:39:57.744Z,0.02
2022-12-25T03:43:07.181Z,0.16
2022-12-25T03:46:06.599Z,0.44
2022-12-25T03:48:58.752Z,0.72
2022-12-25T03:51:50.970Z,0.54
2022-12-25T03:54:41.402Z,0.65
2022-12-25T03:57:28.809Z,0.51
2022-12-25T04:00:14.978Z,0.25
2022-12-25T04:03:00.486Z,0.16
2022-12-25T04:05:46.144Z,0.28
2022-12-25T04:08:31.692Z,0.54
2022-12-25T04:11:17.142Z,0.67
2022-12-25T04:14:02.752Z,0.51
2022-12-25T04:16:48.405Z,0.36
2022-12-25T04:19:33.864Z,-0.11
2022-12-25T04:22:19.392Z,0.34
2022-12-25T04:25:04.779Z,0.36
2022-12-25T04:27:50.256Z,-0.04
2022-12-25T04:30:35.706Z,0.13
2022-12-25T04:33:21.431Z,0.02
2022-12-25T04:36:07.485Z,-0.04
2022-12-25T04:38:35.148Z,0.08
2022-12-25T04:41:02.827Z,0.12
2022-12-25T04:43:30.587Z,-0.18
2022-12-25T04:45:59.782Z,-0.17
2022-12-25T04:48:28.522Z,-0.40
2022-12-25T04:50:56.364Z,-0.07
2022-12-25T04:53:23.488Z,0.03
2022-12-25T04:55:50.529Z,-0.19
2022-12-25T04:58:17.610Z,-0.15
2022-12-25T05:00:44.599Z,0.23
2022-12-25T05:03:11.771Z,0.07
2022-12-25T05:05:40.763Z,-0.13
2022-12-25T05:08:07.944Z,0.00
2022-12-25T05:10:35.045Z,0.40
2022-12-25T05:13:02.135Z,0.45
2022-12-25T05:15:29.167Z,0.44
2022-12-25T05:17:56.182Z,0.62
2022-12-25T05:20:23.297Z,0.63
2022-12-25T05:22:50.418Z,0.47
2022-12-25T05:25:17.410Z,0.58
2022-12-25T05:27:48.701Z,0.18
2022-12-25T05:30:19.106Z,-0.05
2022-12-25T05:32:48.046Z,0.27
2022-12-25T05:35:15.303Z,0.38
2022-12-25T05:37:42.313Z,0.56
2022-12-25T05:40:09.971Z,0.33
2022-12-25T05:42:37.051Z,0.72
2022-12-25T05:45:04.377Z,0.37
2022-12-25T05:47:31.496Z,0.39
2022-12-25T05:49:58.480Z,-0.13
2022-12-25T05:52:25.490Z,-0.27
2022-12-25T05:54:52.503Z,-0.22
2022-12-25T05:57:19.531Z,-0.26
2022-12-25T05:59:46.529Z,-0.25
2022-12-25T06:02:13.674Z,-0.49
2022-12-25T06:04:40.868Z,-0.69
2022-12-25T06:07:07.909Z,-0.43
2022-12-25T06:09:34.921Z,-0.37
2022-12-25T06:12:01.946Z,-0.71
2022-12-25T06:14:29.193Z,-0.74
2022-12-25T06:16:56.288Z,-0.59
2022-12-25T06:19:23.406Z,-0.51
2022-12-25T06:21:54.840Z,-0.63
2022-12-25T06:24:25.170Z,-0.62
2022-12-25T06:26:52.244Z,-0.44
2022-12-25T06:29:19.672Z,-0.54
2022-12-25T06:31:46.719Z,-0.65
2022-12-25T06:34:16.585Z,-0.44
2022-12-25T06:36:43.703Z,-0.32
2022-12-25T06:39:11.035Z,-0.18
2022-12-25T06:41:38.227Z,-0.28
2022-12-25T06:44:05.490Z,-0.48
2022-12-25T06:46:32.590Z,-0.69
2022-12-25T06:49:00.594Z,-0.86
2022-12-25T06:51:32.290Z,-0.68
2022-12-25T06:54:03.117Z,-0.47
2022-12-25T06:56:30.523Z,-0.15
2022-12-25T06:58:59.968Z,-0.09
2022-12-25T07:01:44.688Z,-0.21
2022-12-25T07:04:17.115Z,-0.41
2022-12-25T07:06:44.146Z,-0.12
2022-12-25T07:09:11.382Z,-0.41
2022-12-25T07:11:38.439Z,-0.24
2022-12-25T07:14:05.562Z,0.12
2022-12-25T07:16:32.658Z,0.00
2022-12-25T07:19:01.379Z,0.52
2022-12-25T07:21:28.517Z,0.68
2022-12-25T07:23:55.572Z,0.31
2022-12-25T07:26:22.609Z,0.19
2022-12-25T07:28:49.653Z,0.00
2022-12-25T07:31:18.185Z,0.17
2022-12-25T07:33:45.729Z,0.32
2022-12-25T07:36:14.329Z,0.29
2022-12-25T07:38:42.692Z,0.27
2022-12-25T07:41:11.788Z,-0.04
2022-12-25T07:43:38.980Z,-0.09
2022-12-25T07:46:06.235Z,-0.34
2022-12-25T07:48:33.666Z,0.17
2022-12-25T07:51:06.303Z,0.44
2022-12-25T07:53:35.651Z,0.22
2022-12-25T07:56:08.259Z,0.46
2022-12-25T07:58:35.582Z,0.28
2022-12-25T08:01:08.471Z,-0.19
2022-12-25T08:03:36.751Z,-0.58
2022-12-25T08:06:06.827Z,-0.53
2022-12-25T08:08:34.714Z,-0.13
2022-12-25T08:11:02.041Z,-0.14
2022-12-25T08:13:32.309Z,-0.45
2022-12-25T08:16:01.701Z,-0.43
2022-12-25T08:18:30.597Z,-0.57
2022-12-25T08:21:03.406Z,-0.49
2022-12-25T08:23:30.490Z,-0.32
2022-12-25T08:26:05.002Z,-0.57
2022-12-25T08:28:33.711Z,-0.55
2022-12-25T08:31:06.933Z,-0.93
2022-12-25T08:33:34.281Z,-0.70
2022-12-25T08:36:06.628Z,-0.93
2022-12-25T08:38:33.898Z,-0.35
2022-12-25T08:41:01.071Z,-0.50
2022-12-25T08:43:28.168Z,-0.75
2022-12-25T08:45:55.427Z,-0.40
2022-12-25T08:48:22.584Z,-0.35
2022-12-25T08:50:51.191Z,-0.27
2022-12-25T08:53:19.378Z,-0.27
2022-12-25T08:55:46.725Z,-0.60
2022-12-25T08:58:17.229Z,-0.47
2022-12-25T09:00:44.232Z,-0.13
2022-12-25T09:03:11.312Z,0.06
2022-12-25T09:05:38.643Z,0.29
2022-12-25T09:08:05.743Z,-0.31
2022-12-25T09:10:36.753Z,-0.51
2022-12-25T09:13:04.456Z,-0.22
2022-12-25T09:15:32.735Z,0.05
2022-12-25T09:17:59.862Z,-0.54
2022-12-25T09:20:26.937Z,-0.55
2022-12-25T09:22:54.008Z,-0.75
2022-12-25T09:25:21.028Z,-0.74
2022-12-25T09:27:48.023Z,-0.35
2022-12-25T09:30:15.331Z,-0.44
2022-12-25T09:32:44.751Z,-0.32
2022-12-25T09:35:13.996Z,-0.24
2022-12-25T09:37:41.095Z,-0.17
2022-12-25T09:40:10.368Z,-0.16
2022-12-25T09:42:37.455Z,0.11
2022-12-25T09:45:12.076Z,0.35
2022-12-25T09:47:42.048Z,-0.41
2022-12-25T09:50:17.745Z,-0.52
2022-12-25T09:53:08.473Z,-0.53
2022-12-25T09:55:43.636Z,-0.43
2022-12-25T09:58:15.536Z,-0.61
2022-12-25T10:00:48.884Z,-0.20
2022-12-25T10:03:37.527Z,-0.33
2022-12-25T10:06:45.852Z,-0.44
2022-12-25T10:09:30.820Z,-0.68
2022-12-25T10:12:09.391Z,-0.57
2022-12-25T10:14:52.468Z,-0.48
2022-12-25T10:17:22.235Z,-0.61
2022-12-25T10:19:52.050Z,-0.46
2022-12-25T10:22:38.527Z,0.14
2022-12-25T10:25:07.255Z,0.23
2022-12-25T10:27:40.985Z,-0.07
2022-12-25T10:30:17.078Z,-0.08
2022-12-25T10:32:45.670Z,-0.71
2022-12-25T10:35:15.752Z,-0.64
2022-12-25T10:37:45.134Z,-0.60
2022-12-25T10:40:24.545Z,-0.70
2022-12-25T10:43:17.987Z,-0.40
2022-12-25T10:45:47.269Z,-0.33
2022-12-25T10:48:28.052Z,-0.58
2022-12-25T10:50:56.864Z,-0.51
2022-12-25T10:53:29.031Z,-0.65
2022-12-25T10:56:05.007Z,-0.38
2022-12-25T10:58:33.403Z,-0.01
2022-12-25T11:01:03.939Z,0.26
2022-12-25T11:03:44.298Z,-0.04
2022-12-25T11:06:32.578Z,0.17
2022-12-25T11:09:02.751Z,0.05
2022-12-25T11:11:30.977Z,0.03
2022-12-25T11:14:01.236Z,-0.27
2022-12-25T11:16:33.193Z,-0.08
2022-12-25T11:19:01.158Z,-0.67
2022-12-25T11:21:37.458Z,-0.25
2022-12-25T11:24:07.046Z,-0.67
2022-12-25T11:26:51.738Z,-0.45
2022-12-25T11:29:36.271Z,-0.06
2022-12-25T11:32:05.943Z,-0.07
2022-12-25T11:34:41.267Z,-0.41
2022-12-25T11:37:28.231Z,-0.60
2022-12-25T11:39:55.422Z,-0.53
2022-12-25T11:42:35.220Z,-0.19
2022-12-25T11:45:28.706Z,-0.62
2022-12-25T11:48:17.243Z,-0.78
2022-12-25T11:50:51.552Z,-0.77
2022-12-25T11:53:39.948Z,-0.56
2022-12-25T11:56:40.560Z,-0.16
2022-12-25T11:59:38.707Z,-0.13
2022-12-25T12:02:20.912Z,-0.21
2022-12-25T12:04:53.677Z,-0.74
2022-12-25T12:07:27.374Z,-0.41
2022-12-25T12:10:19.232Z,-0.54
2022-12-25T12:13:12.329Z,-0.23
2022-12-25T12:15:46.358Z,0.16
2022-12-25T12:18:22.317Z,0.21
2022-12-25T12:21:21.340Z,0.27
2022-12-25T12:24:04.261Z,-0.23
2022-12-25T12:26:36.885Z,-0.54
2022-12-25T12:29:07.149Z,-0.37
2022-12-25T12:31:49.966Z,-0.80
2022-12-25T12:34:46.182Z,-0.84
2022-12-25T12:37:24.869Z,-0.38
2022-12-25T12:39:54.610Z,-0.30
2022-12-25T12:42:30.874Z,-0.24
2022-12-25T12:45:08.931Z,-0.42
2022-12-25T12:47:43.455Z,-0.81
2022-12-25T12:50:41.206Z,-1.00
2022-12-25T12:53:23.587Z,-0.92
2022-12-25T12:55:52.169Z,-0.92
2022-12-25T12:58:33.712Z,-0.71
2022-12-25T13:01:25.622Z,-0.77
2022-12-25T13:04:01.827Z,-0.54
2022-12-25T13:06:40.414Z,-0.33
2022-12-25T13:09:43.758Z,-0.04
2022-12-25T13:12:13.155Z,-0.61
2022-12-25T13:14:46.427Z,-0.71
2022-12-25T13:17:24.520Z,-0.61
2022-12-25T13:19:57.298Z,-0.61
2022-12-25T13:22:32.942Z,-0.98
2022-12-25T13:25:05.175Z,-0.61
2022-12-25T13:27:33.764Z,-0.47
2022-12-25T13:30:11.583Z,-0.68
2022-12-25T13:32:38.744Z,-0.45
2022-12-25T13:35:11.877Z,-0.21
2022-12-25T13:37:39.017Z,0.06
2022-12-25T13:40:08.475Z,0.24
2022-12-25T13:42:39.924Z,0.18
2022-12-25T13:45:21.223Z,-0.05
2022-12-25T13:47:54.670Z,-0.23
2022-12-25T13:50:31.191Z,-0.79
2022-12-25T13:53:11.839Z,-0.94
2022-12-25T13:55:39.824Z,-0.90
2022-12-25T13:58:14.672Z,-1.14
2022-12-25T14:00:52.537Z,-1.32
2022-12-25T14:03:23.724Z,-1.30
2022-12-25T14:06:05.786Z,-1.24
2022-12-25T14:08:35.336Z,-1.33
2022-12-25T14:11:05.588Z,-1.53
2022-12-25T14:13:37.721Z,-1.35
2022-12-25T14:16:05.512Z,-1.02
2022-12-25T14:18:33.539Z,-0.85
2022-12-25T14:21:10.887Z,-0.73
2022-12-25T14:23:49.031Z,-0.87
2022-12-25T14:26:19.884Z,-1.00
2022-12-25T14:28:53.224Z,-1.07
2022-12-25T14:31:22.123Z,-0.99
2022-12-25T14:33:50.364Z,-1.13
2022-12-25T14:36:18.196Z,-1.13
2022-12-25T14:38:57.168Z,-1.02
2022-12-25T14:41:37.993Z,-1.09
2022-12-25T14:44:06.933Z,-1.11
2022-12-25T14:46:34.833Z,-1.03
2022-12-25T14:49:07.317Z,-0.85
2022-12-25T14:51:38.297Z,-0.80
2022-12-25T14:54:13.817Z,-0.54
2022-12-25T14:56:47.354Z,-0.43
2022-12-25T14:59:18.856Z,-0.42
2022-12-25T15:01:52.547Z,-0.38
2022-12-25T15:04:22.347Z,-0.41
2022-12-25T15:07:09.691Z,-0.51
2022-12-25T15:09:37.874Z,-0.45
2022-12-25T15:12:05.408Z,-0.43
2022-12-25T15:14:32.471Z,-0.44
2022-12-25T15:17:01.491Z,-0.51
2022-12-25T15:19:37.395Z,-0.60
2022-12-25T15:22:06.447Z,-0.51
2022-12-25T15:24:33.549Z,-0.65
2022-12-25T15:27:01.026Z,-0.48
2022-12-25T15:32:21.820Z,-0.40
2022-12-25T15:34:50.156Z,-0.54
2022-12-25T15:37:18.565Z,-0.52
2022-12-25T15:39:46.412Z,-0.43
2022-12-25T15:42:19.572Z,-0.27
2022-12-25T15:44:46.776Z,-0.33
2022-12-25T15:47:16.168Z,-0.41
2022-12-25T15:49:43.616Z,-1.04
2022-12-25T15:52:14.177Z,-1.27
2022-12-25T15:54:41.223Z,-1.13
2022-12-25T15:57:18.168Z,-0.80
2022-12-25T15:59:45.259Z,-0.59
2022-12-25T16:02:17.935Z,-0.82
2022-12-25T16:04:45.503Z,-0.89
2022-12-25T16:07:17.790Z,-0.63
2022-12-25T16:09:45.105Z,-0.48
2022-12-25T16:12:12.379Z,-0.61
2022-12-25T16:14:39.494Z,-0.67
2022-12-25T16:17:06.698Z,-0.53
2022-12-25T16:19:33.963Z,-0.48
2022-12-25T16:22:01.168Z,-0.42
2022-12-25T16:24:28.226Z,-0.40
2022-12-25T16:26:55.295Z,-0.55
2022-12-25T16:29:22.309Z,-0.41
2022-12-25T16:31:49.329Z,-0.42
2022-12-25T16:34:16.428Z,-0.33
2022-12-25T16:36:43.424Z,-0.53
2022-12-25T16:39:11.603Z,-0.64
2022-12-25T16:41:38.638Z,-0.56
2022-12-25T16:44:09.586Z,-0.35
2022-12-25T16:46:37.493Z,-0.48
2022-12-25T16:49:04.740Z,-0.87
2022-12-25T16:51:31.770Z,-0.98
2022-12-25T16:53:58.807Z,-0.99
2022-12-25T16:56:28.629Z,-0.76
2022-12-25T16:58:57.980Z,-0.90
2022-12-25T17:01:25.734Z,-0.79
2022-12-25T17:03:53.081Z,-0.76
2022-12-25T17:06:23.876Z,-0.98
2022-12-25T17:08:52.713Z,-1.30
2022-12-25T17:11:24.380Z,-1.53
2022-12-25T17:13:51.413Z,-1.55
2022-12-25T17:16:21.484Z,-1.67
2022-12-25T17:18:48.696Z,-1.92
2022-12-25T17:21:15.812Z,-2.05
2022-12-25T17:23:45.088Z,-1.82
2022-12-25T17:26:12.199Z,-1.78
2022-12-25T17:28:39.316Z,-1.78
2022-12-25T17:31:08.710Z,-1.85
2022-12-25T17:33:36.758Z,-1.97
2022-12-25T17:36:06.482Z,-2.09
2022-12-25T17:38:34.997Z,-2.22
2022-12-25T17:41:05.626Z,-2.04
2022-12-25T17:43:34.839Z,-2.28
2022-12-25T17:46:09.138Z,-2.32
2022-12-25T17:48:36.395Z,-2.08
2022-12-25T17:51:09.740Z,-2.19
2022-12-25T17:53:38.699Z,-2.23
2022-12-25T17:56:06.483Z,-2.04
2022-12-25T17:58:33.637Z,-1.85
2022-12-25T18:01:09.557Z,-1.59
2022-12-25T18:03:36.929Z,-1.74
2022-12-25T18:06:05.423Z,-1.56
2022-12-25T18:08:38.874Z,-1.50
2022-12-25T18:11:15.323Z,-1.30
2022-12-25T18:13:45.136Z,-1.22
2022-12-25T18:16:13.322Z,-1.25
2022-12-25T18:18:45.184Z,-1.29
2022-12-25T18:21:16.732Z,-1.56
2022-12-25T18:23:46.134Z,-1.28
2022-12-25T18:26:13.857Z,-0.95
2022-12-25T18:28:42.704Z,-1.01
2022-12-25T18:31:13.284Z,-0.89
2022-12-25T18:33:40.905Z,-1.02
2022-12-25T18:36:12.370Z,-1.05
2022-12-25T18:38:39.698Z,-1.07
2022-12-25T18:41:09.044Z,-0.90
2022-12-25T18:43:53.254Z,-0.59
2022-12-25T18:46:27.719Z,-0.37
2022-12-25T18:48:56.610Z,-0.55
2022-12-25T18:51:24.438Z,-0.25
2022-12-25T18:53:51.835Z,-0.09
2022-12-25T18:56:20.534Z,0.00
2022-12-25T18:58:51.654Z,0.18
2022-12-25T19:01:21.947Z,0.05
2022-12-25T19:03:51.007Z,-0.18
2022-12-25T19:06:20.564Z,-0.78
2022-12-25T19:08:48.144Z,-0.78
2022-12-25T19:11:18.975Z,-0.78
2022-12-25T19:13:48.398Z,-0.60
2022-12-25T19:16:17.062Z,-0.52
2022-12-25T19:18:45.829Z,-0.56
2022-12-25T19:21:13.058Z,-0.91
2022-12-25T19:23:40.713Z,-0.82
2022-12-25T19:26:09.910Z,-0.84
2022-12-25T19:28:39.963Z,-0.93
2022-12-25T19:31:09.007Z,-0.73
2022-12-25T19:33:40.849Z,-0.48
2022-12-25T19:36:13.231Z,-0.15
2022-12-25T19:38:40.396Z,0.05
2022-12-25T19:41:09.420Z,-0.02
2022-12-25T19:43:38.690Z,-0.26
2022-12-25T19:46:07.015Z,-0.50
2022-12-25T19:48:36.131Z,-0.34
2022-12-25T19:51:03.372Z,-0.22
2022-12-25T19:53:30.627Z,-0.08
2022-12-25T19:56:01.559Z,0.15
2022-12-25T19:58:29.823Z,0.09
2022-12-25T20:01:01.532Z,0.01
2022-12-25T20:03:28.946Z,-0.04
2022-12-25T20:05:56.660Z,-0.62
2022-12-25T20:08:24.549Z,-0.68
2022-12-25T20:10:52.016Z,-0.66
2022-12-25T20:13:19.407Z,-0.59
2022-12-25T20:15:47.251Z,-0.42
2022-12-25T20:18:14.544Z,-0.09
2022-12-25T20:20:41.586Z,-0.46
2022-12-25T20:23:09.072Z,-0.38
2022-12-25T20:25:41.068Z,-0.34
2022-12-25T20:28:09.032Z,-0.37
2022-12-25T20:30:41.452Z,-0.10
2022-12-25T20:33:08.851Z,-0.10
2022-12-25T20:35:36.974Z,-0.40
2022-12-25T20:38:04.092Z,-0.71
2022-12-25T20:40:37.580Z,-1.00
2022-12-25T20:43:18.237Z,-1.19
2022-12-25T20:45:45.265Z,-0.85
2022-12-25T20:48:12.256Z,-0.31
2022-12-25T20:50:39.300Z,-0.62
2022-12-25T20:53:06.348Z,-0.77
2022-12-25T20:55:33.356Z,-0.81
2022-12-25T20:58:00.360Z,-0.78
2022-12-25T21:00:27.437Z,-0.49
2022-12-25T21:02:54.714Z,-0.31
2022-12-25T21:05:23.130Z,-1.07
2022-12-25T21:07:50.201Z,-1.02
2022-12-25T21:10:17.277Z,-0.88
2022-12-25T21:12:44.338Z,-0.87
2022-12-25T21:15:15.726Z,-1.41
2022-12-25T21:17:43.090Z,-1.38
2022-12-25T21:20:10.567Z,-1.00
2022-12-25T21:22:37.597Z,-1.22
2022-12-25T21:25:04.946Z,-1.76
2022-12-25T21:27:31.933Z,-1.36
2022-12-25T21:29:58.947Z,-0.92
2022-12-25T21:33:01.079Z,-1.30
2022-12-25T21:35:28.117Z,-1.41
2022-12-25T21:37:55.120Z,-1.51
2022-12-25T21:40:22.126Z,-1.42
2022-12-25T21:42:49.159Z,-1.36
2022-12-25T21:45:16.243Z,-1.36
2022-12-25T21:48:02.753Z,-1.34
2022-12-25T21:50:49.004Z,-1.03
2022-12-25T21:53:17.728Z,-0.70
2022-12-25T21:55:56.750Z,-0.28
2022-12-25T21:58:23.872Z,-0.12
2022-12-25T22:00:50.920Z,-0.24
2022-12-25T22:03:17.906Z,-0.18
2022-12-25T22:06:03.394Z,-0.42
2022-12-25T22:08:32.435Z,-0.30
2022-12-25T22:11:03.390Z,-0.28
2022-12-25T22:13:48.925Z,-0.27
2022-12-25T22:16:34.437Z,-1.02
2022-12-25T22:19:20.142Z,-1.60
2022-12-25T22:21:47.172Z,-1.30
2022-12-25T22:24:14.513Z,-0.85
2022-12-25T22:26:44.306Z,-1.07
2022-12-25T22:29:11.347Z,-0.69
2022-12-25T22:31:44.728Z,-0.45
2022-12-25T22:34:15.937Z,-0.23
2022-12-25T22:36:43.390Z,-0.45
2022-12-25T22:39:10.612Z,-0.89
2022-12-25T22:41:37.827Z,-0.91
2022-12-25T22:44:20.875Z,-1.02
2022-12-25T22:46:48.087Z,-1.28
2022-12-25T22:49:17.991Z,-0.98
2022-12-25T22:51:46.061Z,-0.72
2022-12-25T22:54:13.979Z,-0.59
2022-12-25T22:56:41.414Z,-0.34
2022-12-25T22:59:08.711Z,-0.24
2022-12-25T23:01:36.433Z,-0.35
2022-12-25T23:04:03.865Z,-0.71
2022-12-25T23:06:30.970Z,-0.41
2022-12-25T23:08:58.318Z,-0.12
2022-12-25T23:11:25.869Z,0.13
2022-12-25T23:14:11.455Z,0.23
2022-12-25T23:16:38.543Z,0.28
2022-12-25T23:19:25.677Z,-0.10
2022-12-25T23:22:11.463Z,-0.31
2022-12-25T23:24:56.911Z,-0.11
2022-12-25T23:27:23.888Z,-0.11
2022-12-25T23:29:50.885Z,-0.12
2022-12-25T23:32:30.473Z,-0.02
2022-12-25T23:34:57.630Z,-0.21
2022-12-25T23:37:24.649Z,-0.11
2022-12-25T23:39:51.674Z,-0.34
2022-12-25T23:42:18.764Z,-0.37
2022-12-25T23:44:45.873Z,-0.65
2022-12-25T23:47:13.104Z,-0.95
2022-12-25T23:49:40.221Z,-1.05
2022-12-25T23:52:07.259Z,-0.81
2022-12-25T23:54:34.328Z,-0.69
2022-12-25T23:57:01.459Z,-0.73
2022-12-25T23:59:30.731Z,-0.74
